Time;durP1;ratioP1;P1;durP2;ratioP2;P2;SDS_P1;SDS_P2;PMS_P1;PMS_P2;Temp;Humidity;BMP_temperature;BMP_pressure;BME280_temperature;BME280_humidity;BME280_pressure;Samples;Min_cycle;Max_cycle;Signal;HPM_P1;HPM_P2
2021/07/28 00:00:04;;;;;;;9.35;4.60;;;;;;;23.47;56.86;100669.53;5034899;28;20486;-62
2021/07/28 00:02:30;;;;;;;7.07;5.10;;;;;;;23.41;57.11;100663.44;5034497;28;20476;-63
2021/07/28 00:04:55;;;;;;;12.15;4.65;;;;;;;23.46;57.62;100666.00;5034689;28;20029;-65
2021/07/28 00:07:21;;;;;;;14.57;5.25;;;;;;;23.61;57.04;100664.91;5034682;28;20025;-63
2021/07/28 00:09:46;;;;;;;8.55;4.55;;;;;;;23.52;57.86;100655.38;5032675;28;20063;-67
2021/07/28 00:12:11;;;;;;;14.25;4.85;;;;;;;23.69;57.54;100663.06;5034565;28;20017;-70
2021/07/28 00:14:37;;;;;;;8.40;4.90;;;;;;;23.70;57.26;100653.38;5020792;28;20423;-64
2021/07/28 00:17:04;;;;;;;8.80;4.68;;;;;;;23.60;57.54;100657.91;5034662;28;20025;-67
2021/07/28 00:19:45;;;;;;;9.90;4.95;;;;;;;23.64;57.11;100661.38;5034202;28;20399;-67
2021/07/28 00:24:55;;;;;;;8.30;4.55;;;;;;;23.65;56.18;100655.22;5034149;28;20036;-64
2021/07/28 00:27:20;;;;;;;8.13;4.70;;;;;;;23.51;56.69;100651.00;5034461;28;20022;-63
2021/07/28 00:29:46;;;;;;;6.70;4.78;;;;;;;23.42;56.60;100654.63;5034001;28;20156;-65
2021/07/28 00:32:11;;;;;;;7.35;4.47;;;;;;;23.29;56.59;100649.56;5034115;28;20101;-65
2021/07/28 00:34:37;;;;;;;6.05;4.20;;;;;;;23.16;57.03;100649.69;5034061;28;20034;-66
2021/07/28 00:37:02;;;;;;;7.20;4.53;;;;;;;23.20;56.99;100661.06;5033261;28;20545;-67
2021/07/28 00:39:28;;;;;;;7.32;5.13;;;;;;;23.18;57.18;100654.94;5020863;28;20472;-68
2021/07/28 00:41:53;;;;;;;8.75;4.80;;;;;;;23.21;56.73;100655.78;5034303;28;20039;-67
2021/07/28 00:44:19;;;;;;;6.93;4.40;;;;;;;23.35;56.84;100660.00;5034094;28;20022;-65
2021/07/28 00:46:44;;;;;;;9.38;4.30;;;;;;;23.41;56.98;100649.38;4999309;28;20470;-70
2021/07/28 00:49:10;;;;;;;7.25;4.35;;;;;;;23.33;57.97;100660.03;5033945;28;20022;-64
2021/07/28 00:51:35;;;;;;;8.25;4.88;;;;;;;23.29;58.78;100654.81;4998823;28;20046;-66
2021/07/28 00:54:01;;;;;;;11.52;5.38;;;;;;;22.95;59.65;100619.19;5033735;28;20041;-67
2021/07/28 00:56:28;;;;;;;8.73;4.72;;;;;;;23.03;60.78;100641.06;5033564;28;20034;-68
2021/07/28 00:58:57;;;;;;;9.02;4.85;;;;;;;23.08;60.59;100651.53;5029593;28;20066;-69
2021/07/28 01:01:22;;;;;;;12.27;5.07;;;;;;;23.00;61.31;100656.88;5002042;28;20034;-64
2021/07/28 01:03:48;;;;;;;8.07;4.50;;;;;;;23.10;60.81;100652.38;4996097;28;20588;-63
2021/07/28 01:06:13;;;;;;;7.55;4.55;;;;;;;23.11;60.93;100651.50;5004365;28;20049;-65
2021/07/28 01:08:40;;;;;;;10.10;5.05;;;;;;;23.35;59.71;100631.03;4998027;28;20045;-66
2021/07/28 01:11:06;;;;;;;6.72;4.68;;;;;;;23.43;59.52;100618.63;5005742;28;20117;-65
2021/07/28 01:13:35;;;;;;;8.25;4.70;;;;;;;23.41;60.08;100644.13;4992050;28;20041;-65
2021/07/28 01:16:08;;;;;;;9.05;5.05;;;;;;;23.35;59.75;100638.94;5004455;28;20096;-64
2021/07/28 01:18:35;;;;;;;10.98;4.85;;;;;;;23.15;60.26;100612.81;5011228;28;20030;-65
2021/07/28 01:21:00;;;;;;;8.90;4.68;;;;;;;23.30;59.80;100646.03;5011347;28;20061;-65
2021/07/28 01:23:28;;;;;;;9.68;5.10;;;;;;;23.17;60.38;100645.31;5011526;28;20065;-65
2021/07/28 01:25:56;;;;;;;8.52;5.03;;;;;;;23.31;59.68;100646.00;5008564;28;20038;-65
2021/07/28 01:28:25;;;;;;;10.35;5.22;;;;;;;23.07;59.88;100639.25;5011215;28;20034;-65
2021/07/28 01:31:11;;;;;;;10.82;4.95;;;;;;;22.84;60.40;100645.66;5010063;28;20030;-65
2021/07/28 01:33:39;;;;;;;14.38;4.72;;;;;;;22.78;60.82;100656.25;5033350;28;20042;-65
2021/07/28 01:36:07;;;;;;;9.00;4.82;;;;;;;22.69;61.20;100651.09;5033290;28;20450;-65
2021/07/28 01:38:33;;;;;;;11.35;4.90;;;;;;;22.61;61.39;100641.50;5030479;28;20029;-64
2021/07/28 01:41:03;;;;;;;9.15;4.78;;;;;;;22.85;60.61;100647.38;5024197;28;20496;-65
2021/07/28 01:43:30;;;;;;;9.52;4.90;;;;;;;22.64;61.54;100656.38;5033156;28;20468;-65
2021/07/28 01:45:57;;;;;;;11.80;4.78;;;;;;;22.70;61.39;100658.94;5032830;28;20072;-64
2021/07/28 01:48:23;;;;;;;7.75;4.78;;;;;;;22.54;61.66;100624.06;5033565;28;20175;-65
2021/07/28 01:50:50;;;;;;;8.00;4.95;;;;;;;22.83;61.11;100654.44;5032977;28;20029;-66
2021/07/28 01:53:17;;;;;;;10.70;4.97;;;;;;;22.89;61.15;100643.84;5032853;28;20078;-65
2021/07/28 01:55:43;;;;;;;8.40;5.10;;;;;;;22.91;61.43;100649.09;5032841;28;20058;-65
2021/07/28 01:58:10;;;;;;;9.10;5.05;;;;;;;22.85;61.78;100647.38;5032629;28;20550;-65
2021/07/28 02:00:36;;;;;;;11.70;5.22;;;;;;;22.89;61.51;100661.38;5032907;28;20078;-67
2021/07/28 02:03:03;;;;;;;7.75;4.70;;;;;;;22.82;61.74;100651.81;5014327;28;20040;-65
2021/07/28 02:05:35;;;;;;;12.52;5.68;;;;;;;22.40;62.86;100632.06;5032512;28;20529;-67
2021/07/28 02:08:06;;;;;;;11.07;5.45;;;;;;;22.70;62.07;100658.94;5032712;28;20033;-65
2021/07/28 02:10:35;;;;;;;7.70;5.40;;;;;;;22.75;61.34;100661.53;5032443;28;20148;-64
2021/07/28 02:13:01;;;;;;;;;;;;;;;22.64;62.30;100659.00;5033104;28;20411;-65
2021/07/28 02:15:28;;;;;;;15.15;5.15;;;;;;;22.58;62.03;100654.69;5032528;28;19909;-64
2021/07/28 02:17:54;;;;;;;10.48;5.13;;;;;;;22.57;62.27;100658.22;5031909;28;20495;-65
2021/07/28 02:20:20;;;;;;;10.85;5.00;;;;;;;22.60;62.14;100666.09;5032455;28;20022;-65
2021/07/28 02:22:46;;;;;;;9.30;5.20;;;;;;;22.75;60.98;100651.91;5032164;28;20072;-65
2021/07/28 02:25:12;;;;;;;8.48;4.72;;;;;;;22.76;60.91;100655.41;5014468;28;20110;-65
2021/07/28 02:27:38;;;;;;;8.52;5.00;;;;;;;22.81;60.91;100658.00;5032066;28;20566;-65
2021/07/28 02:30:24;;;;;;;11.13;5.43;;;;;;;22.96;59.99;100652.53;5010208;28;20108;-65
2021/07/28 02:32:50;;;;;;;14.02;5.05;;;;;;;22.94;60.07;100651.69;5010031;28;20611;-65
2021/07/28 02:35:15;;;;;;;8.82;5.05;;;;;;;22.91;59.56;100657.00;4993577;28;20116;-65
2021/07/28 02:37:43;;;;;;;9.93;4.78;;;;;;;23.03;59.15;100646.31;4995778;28;20126;-64
2021/07/28 02:40:17;;;;;;;8.60;5.63;;;;;;;23.13;58.57;100652.34;4990662;28;20036;-66
2021/07/28 02:42:43;;;;;;;13.57;5.68;;;;;;;23.29;59.02;100653.06;4990509;28;20555;-65
2021/07/28 02:45:09;;;;;;;18.33;6.22;;;;;;;23.40;60.16;100652.91;4990455;28;20065;-68
2021/07/28 02:47:34;;;;;;;19.52;5.35;;;;;;;23.44;57.67;100641.47;4990236;28;20065;-64
2021/07/28 02:50:00;;;;;;;17.05;5.97;;;;;;;23.47;57.59;100630.88;4990196;28;20120;-65
2021/07/28 02:55:09;;;;;;;14.93;5.63;;;;;;;23.40;58.15;100645.91;5167660;23;20058;-67
2021/07/28 02:57:36;;;;;;;14.85;5.70;;;;;;;23.31;58.73;100640.72;4992969;28;20033;-67
2021/07/28 03:00:03;;;;;;;16.65;6.43;;;;;;;23.21;59.88;100632.06;4992994;28;20512;-67
2021/07/28 03:02:28;;;;;;;17.58;6.68;;;;;;;23.21;60.48;100639.97;4974067;28;20047;-67
2021/07/28 03:04:54;;;;;;;20.95;6.32;;;;;;;23.02;59.64;100612.13;4973206;28;20485;-67
2021/07/28 03:07:19;;;;;;;45.63;7.03;;;;;;;23.03;59.52;100648.97;4973880;28;20023;-67
2021/07/28 03:09:45;;;;;;;13.07;5.63;;;;;;;22.91;59.28;100652.59;4973418;28;20031;-67
2021/07/28 03:12:10;;;;;;;12.13;5.90;;;;;;;22.84;59.04;100650.03;4973205;28;20105;-67
2021/07/28 03:14:36;;;;;;;18.55;5.63;;;;;;;22.67;59.51;100655.47;4973225;28;20094;-67
2021/07/28 03:17:01;;;;;;;13.40;6.20;;;;;;;22.19;60.62;100661.16;4973126;28;20027;-68
2021/07/28 03:19:27;;;;;;;15.60;5.97;;;;;;;22.12;60.79;100670.84;4972827;28;20084;-67
2021/07/28 03:21:52;;;;;;;13.25;5.88;;;;;;;21.88;61.56;100666.63;4973351;28;20043;-67
2021/07/28 03:24:18;;;;;;;12.88;6.60;;;;;;;21.80;61.56;100653.53;4973349;28;20027;-67
2021/07/28 03:26:45;;;;;;;18.77;7.10;;;;;;;21.75;61.57;100661.44;4973110;28;20030;-67
2021/07/28 03:29:11;;;;;;;14.95;6.15;;;;;;;21.68;61.81;100659.75;4982716;28;20040;-67
2021/07/28 03:31:36;;;;;;;11.93;5.88;;;;;;;21.53;62.50;100671.16;4992223;28;20496;-67
2021/07/28 03:34:02;;;;;;;10.85;5.35;;;;;;;21.39;62.44;100631.84;4991969;28;20023;-67
2021/07/28 03:36:27;;;;;;;10.90;6.05;;;;;;;21.59;62.71;100675.56;4992445;28;20046;-67
2021/07/28 03:38:52;;;;;;;26.13;6.32;;;;;;;21.63;62.65;100666.78;4992149;28;20572;-67
2021/07/28 03:41:18;;;;;;;25.13;7.10;;;;;;;21.29;63.08;100632.78;4991192;28;20026;-67
2021/07/28 03:43:43;;;;;;;12.65;6.53;;;;;;;21.57;62.82;100665.06;4990934;28;20472;-67
2021/07/28 03:46:09;;;;;;;15.73;6.05;;;;;;;21.67;62.43;100675.50;4990872;28;20113;-67
2021/07/28 03:48:34;;;;;;;10.98;5.47;;;;;;;21.77;61.91;100672.84;4992061;28;20038;-67
2021/07/28 03:51:00;;;;;;;19.30;5.88;;;;;;;21.74;62.46;100667.59;4992122;28;20031;-67
2021/07/28 03:53:26;;;;;;;14.00;6.00;;;;;;;21.56;62.77;100649.28;4991977;28;20059;-67
2021/07/28 03:55:52;;;;;;;19.10;6.55;;;;;;;21.77;62.21;100669.31;4992097;28;20029;-65
2021/07/28 03:58:18;;;;;;;27.27;6.45;;;;;;;21.83;62.58;100678.94;4991905;28;20451;-64
2021/07/28 04:00:44;;;;;;;12.90;5.50;;;;;;;21.78;62.61;100671.97;5007007;28;20428;-65
2021/07/28 04:03:09;;;;;;;15.70;5.30;;;;;;;21.32;63.68;100645.88;4991846;28;20113;-65
2021/07/28 04:05:34;;;;;;;14.10;6.15;;;;;;;21.32;63.98;100635.38;4992154;28;20106;-65
2021/07/28 04:08:02;;;;;;;13.82;6.60;;;;;;;21.47;63.80;100673.81;4991992;28;20030;-66
2021/07/28 04:10:27;;;;;;;12.60;5.35;;;;;;;21.20;64.79;100683.59;4991010;28;20121;-65
2021/07/28 04:12:53;;;;;;;10.98;5.68;;;;;;;21.38;64.88;100676.50;4989799;28;20133;-65
2021/07/28 04:15:18;;;;;;;10.40;5.38;;;;;;;21.09;65.54;100678.34;4989627;28;20476;-65
2021/07/28 04:17:44;;;;;;;11.55;6.28;;;;;;;20.72;67.29;100691.56;4972007;28;20485;-64
2021/07/28 04:20:10;;;;;;;13.73;7.07;;;;;;;20.84;67.11;100686.28;4972069;28;20019;-64
2021/07/28 04:22:35;;;;;;;9.80;5.50;;;;;;;21.07;65.75;100681.88;4972326;28;20535;-65
2021/07/28 04:25:05;;;;;;;9.60;5.70;;;;;;;21.24;65.44;100676.56;4978762;28;20037;-67
2021/07/28 04:27:31;;;;;;;10.20;5.55;;;;;;;21.18;65.34;100653.81;4975099;28;20118;-66
2021/07/28 04:29:57;;;;;;;13.38;5.80;;;;;;;21.57;63.91;100672.06;4971753;28;20027;-68
2021/07/28 04:32:23;;;;;;;9.85;5.85;;;;;;;21.91;63.13;100675.38;4971796;28;20077;-66
2021/07/28 04:34:49;;;;;;;12.43;5.88;;;;;;;21.98;63.01;100663.94;4972033;28;20405;-66
2021/07/28 04:37:15;;;;;;;8.05;5.20;;;;;;;22.23;63.08;100674.28;4972037;28;20027;-66
2021/07/28 04:39:41;;;;;;;10.38;5.57;;;;;;;22.41;62.53;100672.41;4955871;28;20030;-67
2021/07/28 04:42:06;;;;;;;13.55;5.95;;;;;;;22.64;62.54;100671.31;4975434;28;20042;-66
2021/07/28 04:44:32;;;;;;;12.27;6.30;;;;;;;22.74;62.90;100659.78;4975437;28;20158;-66
2021/07/28 04:46:57;;;;;;;19.17;7.20;;;;;;;22.81;63.50;100660.63;4975463;28;20030;-65
2021/07/28 04:49:23;;;;;;;13.90;6.55;;;;;;;22.97;63.43;100643.75;4975689;28;20031;-66
2021/07/28 04:51:49;;;;;;;13.80;7.03;;;;;;;22.94;64.51;100651.69;4993560;28;20030;-67
2021/07/28 04:54:14;;;;;;;13.27;7.40;;;;;;;22.86;65.80;100664.94;4994358;28;20058;-66
2021/07/28 04:56:40;;;;;;;18.15;7.47;;;;;;;22.86;66.48;100667.56;4994616;28;20109;-66
2021/07/28 04:59:05;;;;;;;20.40;7.85;;;;;;;22.82;65.59;100626.38;4994540;28;20030;-65
2021/07/28 05:01:31;;;;;;;21.60;7.88;;;;;;;23.19;64.19;100661.97;4994427;28;20026;-66
2021/07/28 05:03:56;;;;;;;16.10;6.50;;;;;;;22.81;64.06;100671.16;4994441;28;20057;-66
2021/07/28 05:06:22;;;;;;;19.70;6.45;;;;;;;22.73;64.23;100674.72;4994647;28;20019;-66
2021/07/28 05:08:47;;;;;;;15.75;6.63;;;;;;;22.31;65.30;100640.00;4994342;28;20026;-69
2021/07/28 05:11:12;;;;;;;18.50;6.93;;;;;;;22.50;65.78;100667.03;4994440;28;20672;-66
2021/07/28 05:13:38;;;;;;;29.42;9.88;;;;;;;22.69;65.06;100670.41;4994432;28;20101;-65
2021/07/28 05:16:04;;;;;;;23.40;8.38;;;;;;;22.62;64.80;100668.69;4994131;28;20034;-66
2021/07/28 05:18:29;;;;;;;15.55;7.60;;;;;;;22.77;64.70;100665.03;4994191;28;20038;-66
2021/07/28 05:20:56;;;;;;;19.30;7.45;;;;;;;22.95;65.35;100663.97;4994254;28;20057;-66
2021/07/28 05:23:22;;;;;;;15.38;7.20;;;;;;;23.10;63.94;100663.81;4993851;28;20026;-66
2021/07/28 05:25:47;;;;;;;14.82;6.68;;;;;;;22.94;64.20;100662.22;4994197;28;20023;-65
2021/07/28 05:28:13;;;;;;;13.73;7.15;;;;;;;23.05;63.62;100662.09;4992033;28;20495;-65
2021/07/28 05:30:38;;;;;;;13.00;6.97;;;;;;;23.29;63.69;100666.25;4993876;28;20031;-65
2021/07/28 05:33:04;;;;;;;18.65;7.45;;;;;;;23.23;62.12;100632.94;4994019;28;20041;-65
2021/07/28 05:35:29;;;;;;;17.70;7.32;;;;;;;23.56;62.86;100662.38;4993687;28;20065;-66
2021/07/28 05:38:03;;;;;;;12.98;6.68;;;;;;;23.72;61.23;100667.41;4994004;28;20030;-66
2021/07/28 05:40:29;;;;;;;18.20;7.53;;;;;;;23.87;62.08;100666.31;4993939;28;20023;-66
2021/07/28 05:42:54;;;;;;;18.98;7.47;;;;;;;23.70;60.98;100638.44;4993878;28;20031;-65
2021/07/28 05:45:20;;;;;;;13.48;6.93;;;;;;;23.85;60.43;100661.06;4993740;28;20026;-65
2021/07/28 05:47:46;;;;;;;22.23;7.57;;;;;;;23.97;59.82;100661.81;4994047;28;20110;-65
2021/07/28 05:50:15;;;;;;;13.10;6.60;;;;;;;24.18;59.25;100663.25;4993276;28;20124;-65
2021/07/28 05:52:42;;;;;;;11.02;6.72;;;;;;;24.32;58.56;100645.38;4991685;28;20033;-66
2021/07/28 05:55:08;;;;;;;14.73;7.50;;;;;;;24.54;57.65;100653.81;4979161;28;20141;-68
2021/07/28 05:57:34;;;;;;;17.73;7.20;;;;;;;24.67;57.54;100651.84;4983772;28;20026;-65
2021/07/28 05:59:59;;;;;;;12.50;7.00;;;;;;;24.77;58.82;100659.59;4991057;28;20473;-66
2021/07/28 06:02:25;;;;;;;17.33;7.22;;;;;;;24.66;58.59;100652.75;4993096;28;20045;-66
2021/07/28 06:04:50;;;;;;;18.27;10.73;;;;;;;24.82;56.52;100655.97;4987425;28;20027;-65
2021/07/28 06:07:16;;;;;;;15.65;10.23;;;;;;;24.91;56.37;100641.72;4983479;28;20030;-68
2021/07/28 06:09:41;;;;;;;20.67;10.07;;;;;;;25.01;54.69;100655.59;4983779;28;20054;-68
2021/07/28 06:12:07;;;;;;;19.35;11.77;;;;;;;25.04;53.64;100653.75;4981917;28;20018;-67
2021/07/28 06:14:33;;;;;;;20.23;10.57;;;;;;;25.12;54.83;100656.28;4987950;28;20030;-67
2021/07/28 06:16:59;;;;;;;19.08;10.88;;;;;;;25.18;54.90;100649.97;4983864;28;20077;-65
2021/07/28 06:19:24;;;;;;;13.85;6.93;;;;;;;25.26;53.19;100650.69;4955585;28;20066;-68
2021/07/28 06:21:50;;;;;;;9.70;5.60;;;;;;;25.19;53.12;100651.72;4983321;28;20029;-66
2021/07/28 06:24:15;;;;;;;9.55;5.60;;;;;;;25.32;53.41;100653.22;4983200;28;20023;-66
2021/07/28 06:26:40;;;;;;;15.40;5.60;;;;;;;25.40;53.51;100646.94;4981948;28;20027;-67
2021/07/28 06:29:06;;;;;;;11.45;5.70;;;;;;;25.56;53.26;100644.78;4986441;28;20030;-66
2021/07/28 06:31:31;;;;;;;16.63;5.40;;;;;;;25.54;54.20;100642.19;4988880;28;20076;-66
2021/07/28 06:33:57;;;;;;;9.57;5.45;;;;;;;25.52;53.51;100620.19;4983519;28;20049;-66
2021/07/28 06:36:22;;;;;;;7.75;4.95;;;;;;;25.71;53.41;100647.09;4981675;28;20023;-66
2021/07/28 06:38:48;;;;;;;10.23;4.60;;;;;;;25.80;53.04;100641.56;4983609;28;20027;-66
2021/07/28 06:41:13;;;;;;;13.32;5.22;;;;;;;25.83;50.97;100645.91;4964264;28;20382;-65
2021/07/28 06:43:39;;;;;;;14.57;5.00;;;;;;;25.93;51.04;100642.16;4981766;28;20022;-66
2021/07/28 06:46:04;;;;;;;10.23;4.63;;;;;;;26.09;50.17;100641.81;4983459;28;20027;-66
2021/07/28 06:48:30;;;;;;;9.45;4.25;;;;;;;26.36;47.06;100637.59;4981932;28;20033;-67
2021/07/28 06:50:55;;;;;;;13.95;4.80;;;;;;;26.59;46.45;100630.81;4982280;28;20080;-66
2021/07/28 06:53:22;;;;;;;10.25;4.60;;;;;;;26.76;47.09;100633.91;4983563;28;20108;-68
2021/07/28 06:55:51;;;;;;;16.48;4.50;;;;;;;26.93;45.25;100633.44;4984505;28;20015;-69
2021/07/28 06:58:17;;;;;;;7.63;4.68;;;;;;;27.09;45.03;100632.97;4982584;28;20062;-68
2021/07/28 07:00:42;;;;;;;17.17;5.10;;;;;;;27.07;44.36;100598.56;4985669;28;20069;-66
2021/07/28 07:03:07;;;;;;;11.48;4.55;;;;;;;27.33;44.59;100619.91;4988284;28;20022;-66
2021/07/28 07:05:33;;;;;;;9.68;5.07;;;;;;;27.36;46.63;100619.81;4982124;28;20022;-65
2021/07/28 07:07:58;;;;;;;14.00;5.32;;;;;;;27.52;45.81;100622.91;4979543;28;20035;-67
2021/07/28 07:10:24;;;;;;;15.80;4.75;;;;;;;27.64;44.99;100624.28;4983213;28;20378;-68
2021/07/28 07:12:49;;;;;;;10.35;4.75;;;;;;;27.69;43.83;100599.38;4981523;28;20050;-70
2021/07/28 07:15:15;;;;;;;14.00;4.65;;;;;;;27.86;44.39;100622.66;4982081;28;20022;-69
2021/07/28 07:17:40;;;;;;;12.07;4.13;;;;;;;27.91;42.54;100625.19;4980712;28;20939;-67
2021/07/28 07:20:06;;;;;;;8.23;3.92;;;;;;;28.00;41.62;100627.56;4984544;28;20030;-65
2021/07/28 07:22:32;;;;;;;11.55;4.38;;;;;;;27.81;43.50;100600.72;4990882;28;20064;-65
2021/07/28 07:24:57;;;;;;;14.02;3.65;;;;;;;28.11;39.91;100619.25;4990940;28;20046;-64
2021/07/28 07:27:23;;;;;;;10.52;3.72;;;;;;;28.25;39.95;100621.41;4990827;28;20429;-65
2021/07/28 07:29:49;;;;;;;13.77;3.55;;;;;;;28.38;39.09;100613.91;4991186;28;20025;-64
2021/07/28 07:32:22;;;;;;;11.77;3.78;;;;;;;28.43;38.61;100606.66;4991091;28;20039;-64
2021/07/28 07:34:48;;;;;;;7.82;4.10;;;;;;;28.47;40.78;100618.03;4988568;28;20084;-62
2021/07/28 07:37:14;;;;;;;9.60;3.65;;;;;;;28.58;41.12;100619.38;4990185;28;20053;-64
2021/07/28 07:39:39;;;;;;;14.90;4.13;;;;;;;28.64;42.62;100612.13;4990908;28;20468;-63
2021/07/28 07:42:04;;;;;;;5.82;3.80;;;;;;;28.32;43.45;100603.50;4990919;28;20030;-63
2021/07/28 07:44:30;;;;;;;13.00;4.05;;;;;;;28.44;42.27;100618.13;4990721;28;20018;-63
2021/07/28 07:46:55;;;;;;;35.22;6.00;;;;;;;28.70;41.49;100612.78;4991292;28;20023;-63
2021/07/28 07:49:21;;;;;;;16.17;3.97;;;;;;;28.77;42.44;100601.94;4990898;28;20030;-64
2021/07/28 07:51:46;;;;;;;11.75;4.35;;;;;;;28.70;42.14;100596.00;4990807;28;20052;-63
2021/07/28 07:54:11;;;;;;;8.32;3.33;;;;;;;28.83;39.55;100613.19;4990727;28;20485;-66
2021/07/28 07:56:37;;;;;;;10.70;3.10;;;;;;;28.94;40.20;100598.66;4990394;28;20030;-67
2021/07/28 07:59:02;;;;;;;9.23;3.97;;;;;;;28.94;40.57;100603.97;4989515;28;20026;-66
2021/07/28 08:01:28;;;;;;;10.13;3.30;;;;;;;29.16;38.53;100599.56;4991714;28;20026;-65
2021/07/28 08:03:54;;;;;;;12.65;3.92;;;;;;;29.29;38.93;100601.78;4991748;28;20038;-68
2021/07/28 08:06:20;;;;;;;12.43;4.10;;;;;;;29.35;39.20;100601.53;4991903;28;20109;-66
2021/07/28 08:08:46;;;;;;;6.32;3.55;;;;;;;29.49;38.37;100604.50;4989934;28;20499;-66
2021/07/28 08:11:13;;;;;;;7.93;3.70;;;;;;;29.62;41.77;100596.03;4991652;28;20039;-69
2021/07/28 08:13:39;;;;;;;9.25;3.90;;;;;;;29.59;39.05;100597.03;4971384;28;20416;-69
2021/07/28 08:16:19;;;;;;;8.90;3.63;;;;;;;29.68;38.55;100598.44;4995805;28;20528;-66
2021/07/28 08:18:47;;;;;;;11.13;3.65;;;;;;;29.69;39.54;100576.22;4995503;28;20555;-70
2021/07/28 08:21:13;;;;;;;9.25;4.40;;;;;;;30.05;38.36;100594.28;4994851;28;20042;-66
2021/07/28 08:23:40;;;;;;;8.85;3.63;;;;;;;30.09;39.60;100590.53;4995730;28;20027;-66
2021/07/28 08:26:05;;;;;;;6.75;3.72;;;;;;;30.11;37.83;100588.69;4995285;28;20390;-66
2021/07/28 08:28:31;;;;;;;8.60;3.78;;;;;;;30.23;37.76;100586.44;4995324;28;20054;-66
2021/07/28 08:30:57;;;;;;;7.05;4.07;;;;;;;30.45;36.88;100581.88;4980137;28;20031;-67
2021/07/28 08:33:26;;;;;;;9.27;4.40;;;;;;;30.61;36.41;100576.78;4975478;28;20481;-65
2021/07/28 08:35:57;;;;;;;10.40;3.90;;;;;;;30.55;36.60;100576.19;4975697;28;20125;-66
2021/07/28 08:38:23;;;;;;;7.47;4.30;;;;;;;30.51;37.22;100567.47;4975507;28;20031;-66
2021/07/28 08:40:50;;;;;;;9.23;3.72;;;;;;;30.67;35.35;100572.97;4975395;28;20031;-67
2021/07/28 08:43:19;;;;;;;9.73;4.22;;;;;;;30.77;39.67;100571.59;4975489;28;20050;-70
2021/07/28 08:45:49;;;;;;;6.10;3.80;;;;;;;30.80;35.94;100566.13;4975728;28;20027;-66
2021/07/28 08:48:16;;;;;;;12.65;4.20;;;;;;;30.93;35.78;100554.88;4989996;28;20037;-66
2021/07/28 08:50:44;;;;;;;11.75;4.25;;;;;;;31.02;35.69;100561.59;4994883;28;20030;-66
2021/07/28 08:53:09;;;;;;;7.13;4.22;;;;;;;31.03;34.38;100566.00;4994813;28;20105;-66
2021/07/28 08:55:35;;;;;;;7.75;3.70;;;;;;;31.04;33.12;100554.38;4995105;28;20125;-67
2021/07/28 08:58:00;;;;;;;9.85;3.75;;;;;;;31.13;33.69;100546.00;4994769;28;20026;-66
2021/07/28 09:00:26;;;;;;;8.38;4.30;;;;;;;31.25;34.05;100549.88;4994792;28;20030;-66
2021/07/28 09:02:52;;;;;;;8.70;4.63;;;;;;;31.42;35.51;100546.38;4994612;28;20065;-66
2021/07/28 09:05:18;;;;;;;7.40;3.65;;;;;;;31.69;32.55;100540.63;4994399;28;20100;-66
2021/07/28 09:07:43;;;;;;;8.50;4.30;;;;;;;31.89;33.01;100539.59;4994715;28;20461;-68
2021/07/28 09:10:13;;;;;;;11.15;4.78;;;;;;;31.91;35.72;100529.72;4994487;28;20550;-66
2021/07/28 09:12:41;;;;;;;9.63;4.35;;;;;;;31.98;33.55;100528.47;4992274;28;20042;-67
2021/07/28 09:15:08;;;;;;;8.63;4.13;;;;;;;32.06;32.92;100528.91;4994418;28;20026;-65
2021/07/28 09:17:44;;;;;;;9.38;4.03;;;;;;;32.04;32.76;100527.25;4992297;28;20135;-69
2021/07/28 09:20:09;;;;;;;6.78;4.00;;;;;;;31.96;32.53;100525.00;4994472;28;20428;-67
2021/07/28 09:22:41;;;;;;;5.63;3.97;;;;;;;32.23;31.66;100524.53;4994314;28;20060;-67
2021/07/28 09:25:33;;;;;;;12.88;4.32;;;;;;;32.22;30.95;100525.47;4994367;28;20105;-67
2021/07/28 09:27:59;;;;;;;11.38;4.32;;;;;;;32.45;32.54;100523.38;4993313;28;20030;-69
2021/07/28 09:30:24;;;;;;;10.65;4.25;;;;;;;32.67;32.60;100525.75;4993995;28;20038;-67
2021/07/28 09:33:07;;;;;;;10.32;4.10;;;;;;;32.72;32.06;100518.34;4994266;28;20029;-67
2021/07/28 09:35:51;;;;;;;9.85;4.43;;;;;;;32.73;33.87;100512.91;4993916;28;20445;-66
2021/07/28 09:38:37;;;;;;;10.65;3.90;;;;;;;32.87;31.81;100512.16;4991849;28;20034;-68
2021/07/28 09:41:17;;;;;;;10.27;4.18;;;;;;;32.92;32.25;100517.25;4984640;28;20031;-69
2021/07/28 09:43:53;;;;;;;11.00;4.72;;;;;;;32.80;32.08;100507.25;4991610;28;20432;-67
2021/07/28 09:46:30;;;;;;;7.15;4.25;;;;;;;33.06;31.23;100520.03;4991737;28;20052;-65
2021/07/28 09:48:57;;;;;;;11.57;4.15;;;;;;;33.15;30.04;100507.06;4991935;28;20069;-64
2021/07/28 09:51:33;;;;;;;7.65;4.45;;;;;;;33.28;30.05;100505.41;4989230;28;20539;-70
2021/07/28 09:54:01;;;;;;;8.60;4.03;;;;;;;33.52;29.64;100507.63;4984051;28;20058;-69
2021/07/28 09:56:38;;;;;;;7.95;4.70;;;;;;;33.52;29.13;100468.34;4981798;28;20034;-68
2021/07/28 09:59:05;;;;;;;16.33;4.75;;;;;;;33.86;29.54;100497.63;4984442;28;20481;-67
2021/07/28 10:01:32;;;;;;;10.05;5.07;;;;;;;33.86;29.84;100494.94;4984825;28;20050;-66
2021/07/28 10:04:00;;;;;;;10.95;4.70;;;;;;;33.99;28.67;100490.53;4986514;28;20031;-64
2021/07/28 10:06:31;;;;;;;12.90;4.43;;;;;;;33.96;31.73;100477.34;4983893;28;20311;-67
2021/07/28 10:09:16;;;;;;;11.85;4.47;;;;;;;33.90;30.98;100467.03;4951955;29;20134;-67
2021/07/28 10:11:46;;;;;;;9.20;4.65;;;;;;;34.19;32.36;100486.63;4948040;28;20063;-65
2021/07/28 10:14:24;;;;;;;8.45;4.60;;;;;;;34.35;29.59;100478.53;4951208;28;20055;-67
2021/07/28 10:16:52;;;;;;;10.10;4.35;;;;;;;34.30;28.72;100461.84;4949117;28;20039;-69
2021/07/28 10:19:17;;;;;;;8.52;4.07;;;;;;;34.57;29.30;100469.13;4929663;29;20056;-66
2021/07/28 10:21:43;;;;;;;11.30;4.47;;;;;;;34.80;28.09;100475.69;4950158;28;20098;-67
2021/07/28 10:24:12;;;;;;;9.00;4.30;;;;;;;34.95;29.07;100471.16;4950091;28;20405;-68
2021/07/28 10:26:45;;;;;;;15.32;4.78;;;;;;;35.08;29.07;100470.34;4949968;28;20031;-66
2021/07/28 10:29:14;;;;;;;6.05;4.22;;;;;;;35.09;27.71;100446.13;4949640;28;20676;-68
2021/07/28 10:31:48;;;;;;;7.25;4.10;;;;;;;35.42;31.39;100450.19;4949920;28;20039;-64
2021/07/28 10:34:36;;;;;;;12.20;4.57;;;;;;;35.49;30.14;100452.47;4949548;28;20031;-68
2021/07/28 10:37:10;;;;;;;11.07;4.50;;;;;;;35.59;31.04;100457.13;4949316;28;20126;-68
2021/07/28 10:39:47;;;;;;;7.25;4.32;;;;;;;35.54;28.08;100429.72;4958228;28;20325;-68
2021/07/28 10:42:16;;;;;;;13.55;4.50;;;;;;;35.90;29.43;100438.91;4983217;28;20109;-69
2021/07/28 10:45:07;;;;;;;6.88;4.22;;;;;;;35.90;28.25;100422.78;4975952;28;20046;-67
2021/07/28 10:47:43;;;;;;;6.88;4.00;;;;;;;36.18;26.22;100436.91;4983821;28;20074;-66
2021/07/28 10:50:20;;;;;;;7.75;4.20;;;;;;;36.36;28.31;100441.94;4972639;28;20026;-65
2021/07/28 10:52:50;;;;;;;12.40;4.32;;;;;;;36.30;26.88;100432.47;4971898;28;20034;-68
2021/07/28 10:55:21;;;;;;;13.10;4.20;;;;;;;36.29;28.75;100425.41;4976468;28;20133;-67
2021/07/28 10:57:53;;;;;;;9.13;4.32;;;;;;;36.25;27.73;100403.25;4972542;28;20018;-69
2021/07/28 11:00:42;;;;;;;10.13;4.07;;;;;;;36.53;26.32;100420.09;4971099;28;20031;-69
2021/07/28 11:03:08;;;;;;;6.72;4.45;;;;;;;36.59;26.40;100425.00;4985435;28;20461;-67
2021/07/28 11:05:37;;;;;;;13.10;4.78;;;;;;;36.75;24.64;100426.56;4982439;28;20089;-68
2021/07/28 11:08:06;;;;;;;9.73;4.55;;;;;;;36.74;25.19;100424.88;4967076;28;20069;-67
2021/07/28 11:11:01;;;;;;;10.63;4.45;;;;;;;36.07;26.39;100358.91;4967034;28;20039;-67
2021/07/28 11:13:31;;;;;;;9.40;4.25;;;;;;;36.63;26.62;100416.75;4968112;28;20054;-65
2021/07/28 11:16:07;;;;;;;8.82;3.95;;;;;;;36.37;25.51;100419.50;4969397;28;20074;-65
2021/07/28 11:18:36;;;;;;;13.07;4.30;;;;;;;36.74;24.68;100419.47;4973508;28;20075;-68
2021/07/28 11:21:29;;;;;;;8.77;3.85;;;;;;;37.00;22.91;100422.94;4968096;28;20125;-66
2021/07/28 11:24:06;;;;;;;11.43;4.35;;;;;;;37.13;24.09;100420.16;4924985;29;20036;-67
2021/07/28 11:26:32;;;;;;;8.82;4.30;;;;;;;37.33;23.66;100417.78;4924648;29;20039;-67